Time;durP1;ratioP1;P1;durP2;ratioP2;P2;SDS_P1;SDS_P2;PMS_P1;PMS_P2;Temp;Humidity;BMP_temperature;BMP_pressure;BME280_temperature;BME280_humidity;BME280_pressure;Samples;Min_cycle;Max_cycle;Signal;HPM_P1;HPM_P2
2022/12/17 13:08:09;;;;;;;1999.90;999.90;;;4.00;99.90;;;;;;5054909;28;20029;-76
2022/12/17 13:10:36;;;;;;;1999.90;999.90;;;4.10;99.90;;;;;;5054726;28;20029;-77
2022/12/17 13:13:16;;;;;;;1999.90;999.90;;;4.10;99.90;;;;;;5048853;28;20033;-76
2022/12/17 13:15:50;;;;;;;1999.90;999.90;;;4.50;99.90;;;;;;5054053;28;20032;-77
2022/12/17 13:18:30;;;;;;;;;;;4.50;99.90;;;;;;5055093;28;20376;-77
2022/12/17 13:21:02;;;;;;;1999.90;999.90;;;5.00;99.90;;;;;;5054570;28;19908;-77
2022/12/17 13:23:37;;;;;;;1999.90;999.90;;;5.90;99.90;;;;;;5053222;28;20120;-77
2022/12/17 13:26:18;;;;;;;1999.90;999.90;;;6.40;99.90;;;;;;5054138;28;20025;-77
2022/12/17 13:28:56;;;;;;;1999.90;999.90;;;6.60;99.90;;;;;;5054709;28;20071;-77
2022/12/17 13:31:31;;;;;;;1999.90;999.90;;;6.50;99.90;;;;;;5054878;28;20035;-77
2022/12/17 13:34:27;;;;;;;1999.90;999.90;;;6.30;99.90;;;;;;5054516;28;20021;-76
2022/12/17 13:37:18;;;;;;;1999.90;999.90;;;6.20;99.90;;;;;;5054639;28;20079;-75
2022/12/17 13:40:15;;;;;;;1999.90;999.90;;;6.60;99.90;;;;;;5053038;28;20025;-77
2022/12/17 13:42:44;;;;;;;1999.90;999.90;;;6.60;99.90;;;;;;5051976;28;20029;-77
2022/12/17 13:45:20;;;;;;;1999.90;999.90;;;6.50;99.90;;;;;;5054336;28;20017;-77
2022/12/17 13:47:56;;;;;;;1999.90;999.90;;;6.30;99.90;;;;;;5054436;28;20373;-77
2022/12/17 13:50:25;;;;;;;1999.90;999.90;;;5.90;99.90;;;;;;5054154;28;20021;-76
2022/12/17 13:52:51;;;;;;;1999.90;999.90;;;5.50;99.90;;;;;;5054422;28;20475;-77
2022/12/17 13:55:22;;;;;;;1999.90;999.90;;;5.20;99.90;;;;;;5054088;28;20070;-76
2022/12/17 13:57:49;;;;;;;1999.90;999.90;;;5.20;99.90;;;;;;5053779;28;20032;-77
2022/12/17 14:00:32;;;;;;;1999.90;999.90;;;5.80;99.90;;;;;;5053685;28;20151;-77
2022/12/17 14:03:10;;;;;;;1999.90;999.90;;;6.70;99.90;;;;;;5052437;28;20032;-77
2022/12/17 14:05:40;;;;;;;1999.90;999.90;;;7.30;99.90;;;;;;5053794;28;20028;-77
2022/12/17 14:08:06;;;;;;;1999.90;999.90;;;7.70;99.90;;;;;;5052284;28;20036;-76
2022/12/17 14:10:32;;;;;;;1999.90;999.90;;;8.30;99.90;;;;;;5053470;28;20033;-77
2022/12/17 14:13:12;;;;;;;1999.90;999.90;;;8.60;99.90;;;;;;5046247;28;20053;-77
2022/12/17 14:15:43;;;;;;;1999.90;999.90;;;8.40;99.90;;;;;;5053677;28;20594;-77
2022/12/17 14:18:14;;;;;;;1999.90;999.90;;;8.00;99.90;;;;;;5053317;28;20039;-77
2022/12/17 14:20:40;;;;;;;1999.90;999.90;;;7.80;99.90;;;;;;5053501;28;20515;-77
2022/12/17 14:23:10;;;;;;;1999.90;999.90;;;7.60;99.90;;;;;;5053297;28;20032;-75
2022/12/17 14:25:38;;;;;;;1999.90;999.90;;;7.50;99.90;;;;;;5053037;28;20558;-77
2022/12/17 14:28:19;;;;;;;1999.90;999.90;;;6.80;99.90;;;;;;5053442;28;20025;-75
2022/12/17 14:30:45;;;;;;;1999.90;999.90;;;6.10;99.90;;;;;;5052330;28;20021;-77
2022/12/17 14:33:28;;;;;;;1999.90;999.90;;;5.70;99.90;;;;;;5053354;28;20028;-77
2022/12/17 14:35:56;;;;;;;1999.90;999.90;;;5.50;99.90;;;;;;5053236;28;20009;-77
2022/12/17 14:38:22;;;;;;;1999.90;999.90;;;5.40;99.90;;;;;;5053181;28;20271;-77
2022/12/17 14:40:48;;;;;;;1999.90;999.90;;;5.30;99.90;;;;;;5052914;28;20070;-77
2022/12/17 14:43:14;;;;;;;1999.90;999.90;;;5.30;99.90;;;;;;5052511;28;20029;-77
2022/12/17 14:51:27;;;;;;;1999.90;999.90;;;7.20;99.90;;;;;;5052908;28;20083;-77
2022/12/17 14:54:04;;;;;;;1999.90;999.90;;;7.70;99.90;;;;;;5052889;28;20044;-78
2022/12/17 14:56:30;;;;;;;1999.90;999.90;;;8.00;99.90;;;;;;5052752;28;20021;-77
2022/12/17 14:58:56;;;;;;;1999.90;999.90;;;8.30;99.90;;;;;;5052998;28;20013;-77
2022/12/17 15:01:21;;;;;;;1999.90;999.90;;;8.40;99.90;;;;;;5052926;28;20491;-77
2022/12/17 15:03:47;;;;;;;1999.90;999.90;;;8.60;99.90;;;;;;5052203;28;20060;-78
2022/12/17 15:06:17;;;;;;;1999.90;999.90;;;8.50;99.90;;;;;;5051427;28;20389;-78
2022/12/17 15:08:46;;;;;;;1999.90;999.90;;;8.60;99.90;;;;;;5052828;28;20048;-78
2022/12/17 15:11:14;;;;;;;1999.90;999.90;;;8.70;99.90;;;;;;5052669;28;20049;-75
2022/12/17 15:13:40;;;;;;;1999.90;999.90;;;9.20;99.90;;;;;;5043677;28;20033;-78
2022/12/17 15:16:06;;;;;;;1999.90;999.90;;;9.30;99.90;;;;;;5052537;28;20013;-77
2022/12/17 15:18:32;;;;;;;1999.90;999.90;;;9.30;99.90;;;;;;5052769;28;20040;-77
2022/12/17 15:20:57;;;;;;;1999.90;999.90;;;9.70;99.90;;;;;;5052424;28;20028;-77
2022/12/17 15:23:24;;;;;;;1999.90;999.90;;;10.00;99.90;;;;;;5052251;28;20037;-78
2022/12/17 15:25:51;;;;;;;1999.90;999.90;;;10.20;99.90;;;;;;5051982;28;20029;-78
2022/12/17 15:28:18;;;;;;;1999.90;999.90;;;10.70;99.90;;;;;;5052413;28;20029;-78
2022/12/17 15:30:45;;;;;;;1999.90;999.90;;;10.90;99.30;;;;;;5052802;28;20104;-78
2022/12/17 15:33:11;;;;;;;1999.90;999.90;;;10.80;98.80;;;;;;5052520;28;20383;-78
2022/12/17 15:35:37;;;;;;;1999.90;999.90;;;10.60;99.20;;;;;;5050915;28;20017;-78
2022/12/17 15:38:03;;;;;;;1999.90;999.90;;;10.30;99.40;;;;;;5050827;28;20506;-78
2022/12/17 15:40:29;;;;;;;1999.90;999.90;;;10.30;99.40;;;;;;5052214;28;20029;-78
2022/12/17 15:43:10;;;;;;;1999.90;999.90;;;10.00;99.80;;;;;;5051525;28;20029;-78
2022/12/17 15:45:44;;;;;;;1999.90;999.90;;;9.60;99.90;;;;;;5052272;28;20021;-78
2022/12/17 15:48:15;;;;;;;1999.90;999.90;;;9.30;99.90;;;;;;5052172;28;20025;-78
2022/12/17 15:50:41;;;;;;;1999.90;999.90;;;9.00;99.90;;;;;;5052360;28;20032;-78
2022/12/17 15:53:08;;;;;;;1999.90;999.90;;;8.70;99.90;;;;;;5052623;28;20021;-78
2022/12/17 15:55:34;;;;;;;1999.90;999.90;;;8.30;99.90;;;;;;5050375;28;20021;-78
2022/12/17 15:58:00;;;;;;;1999.90;999.90;;;7.60;99.90;;;;;;5052109;28;20033;-78
2022/12/17 16:00:26;;;;;;;1999.90;999.90;;;7.30;99.90;;;;;;5052017;28;20029;-78
2022/12/17 16:02:51;;;;;;;1999.90;999.90;;;6.80;99.90;;;;;;5052979;28;20040;-78
2022/12/17 16:05:18;;;;;;;1999.90;999.90;;;6.10;99.90;;;;;;5056038;28;20076;-78
2022/12/17 16:07:44;;;;;;;1999.90;999.90;;;5.10;99.90;;;;;;5055932;28;20017;-78
2022/12/17 16:10:11;;;;;;;1999.90;999.90;;;4.20;99.90;;;;;;5056143;28;20032;-75
2022/12/17 16:12:37;;;;;;;1999.90;999.90;;;3.50;99.90;;;;;;5054539;28;20383;-77
2022/12/17 16:15:04;;;;;;;1999.90;999.90;;;3.10;99.90;;;;;;5056100;28;20039;-77
2022/12/17 16:17:30;;;;;;;1999.90;999.90;;;2.80;99.90;;;;;;5053813;28;20064;-77
2022/12/17 16:19:55;;;;;;;1999.90;999.90;;;2.50;99.90;;;;;;5054934;28;20056;-76
2022/12/17 16:22:21;;;;;;;1999.90;999.90;;;2.40;99.90;;;;;;5055837;28;20275;-77
2022/12/17 16:24:47;;;;;;;1999.90;999.90;;;2.30;99.90;;;;;;5055716;28;20027;-77
2022/12/17 16:27:13;;;;;;;1999.90;999.90;;;2.10;99.90;;;;;;5054136;28;20024;-77
2022/12/17 16:29:39;;;;;;;1999.90;999.90;;;2.00;99.90;;;;;;5055429;28;20036;-77
2022/12/17 16:32:04;;;;;;;1999.90;999.90;;;1.80;99.90;;;;;;5055643;28;20025;-77
2022/12/17 16:34:30;;;;;;;1999.90;999.90;;;1.80;99.90;;;;;;5055893;28;20135;-76
2022/12/17 16:36:56;;;;;;;1999.90;999.90;;;1.70;99.90;;;;;;5054957;28;20021;-77
2022/12/17 16:39:21;;;;;;;1999.90;999.90;;;1.60;99.90;;;;;;5053970;28;20033;-77
2022/12/17 16:41:47;;;;;;;1999.90;999.90;;;1.60;99.90;;;;;;5054977;28;20771;-74
2022/12/17 16:44:13;;;;;;;1999.90;999.90;;;1.50;99.90;;;;;;5054571;28;20038;-77
2022/12/17 16:46:40;;;;;;;1999.90;999.90;;;1.50;99.90;;;;;;5055589;28;20025;-77
2022/12/17 16:49:09;;;;;;;1999.90;999.90;;;1.40;99.90;;;;;;5055436;28;20143;-77
2022/12/17 16:51:35;;;;;;;1999.90;999.90;;;1.30;99.90;;;;;;5035437;28;20033;-77
2022/12/17 16:54:10;;;;;;;1999.90;999.90;;;1.30;99.90;;;;;;5035358;28;20025;-75
2022/12/17 16:56:35;;;;;;;1999.90;999.90;;;1.20;99.90;;;;;;5033959;28;20650;-77
2022/12/17 16:59:03;;;;;;;1999.90;999.90;;;1.20;99.90;;;;;;5040321;28;20044;-77
2022/12/17 17:01:29;;;;;;;1999.90;999.90;;;1.20;99.90;;;;;;5054148;28;20383;-77
2022/12/17 17:03:55;;;;;;;1999.90;999.90;;;1.10;99.90;;;;;;5054815;28;20570;-76
2022/12/17 17:06:21;;;;;;;1999.90;999.90;;;1.00;99.90;;;;;;5055123;28;20112;-77
2022/12/17 17:08:47;;;;;;;1999.90;999.90;;;0.90;99.90;;;;;;5055144;28;20025;-77
2022/12/17 17:11:16;;;;;;;1999.90;999.90;;;0.90;99.90;;;;;;5054561;28;20078;-77
2022/12/17 17:13:42;;;;;;;1999.90;999.90;;;0.90;99.90;;;;;;5054147;28;20017;-77
2022/12/17 17:16:09;;;;;;;1999.90;999.90;;;0.80;99.90;;;;;;5054794;28;20033;-77
2022/12/17 17:18:35;;;;;;;1999.90;999.90;;;0.80;99.90;;;;;;5054736;28;20123;-76
2022/12/17 17:21:24;;;;;;;1999.90;999.90;;;0.70;99.90;;;;;;5054555;28;20032;-76
2022/12/17 17:23:55;;;;;;;1999.90;999.90;;;0.70;99.90;;;;;;5053019;28;20120;-77
2022/12/17 17:26:21;;;;;;;1999.90;999.90;;;0.60;99.90;;;;;;5054302;28;20033;-77
2022/12/17 17:28:48;;;;;;;1999.90;999.90;;;0.60;99.90;;;;;;5054982;28;20021;-77
2022/12/17 17:31:15;;;;;;;1999.90;999.90;;;0.50;99.90;;;;;;5053768;28;20021;-77
2022/12/17 17:33:45;;;;;;;1999.90;999.90;;;0.50;99.90;;;;;;5052528;28;20056;-77
2022/12/17 17:36:33;;;;;;;1999.90;999.90;;;0.40;99.90;;;;;;5054083;28;20021;-76
2022/12/17 17:38:59;;;;;;;1999.90;999.90;;;0.40;99.90;;;;;;5054274;28;20044;-76
2022/12/17 17:41:29;;;;;;;1999.90;999.90;;;0.40;99.90;;;;;;5053975;28;20447;-76
2022/12/17 17:43:57;;;;;;;1999.90;999.90;;;0.30;99.90;;;;;;5053506;28;20125;-77
2022/12/17 17:46:23;;;;;;;1999.90;999.90;;;0.20;99.90;;;;;;5054218;28;20025;-76
2022/12/17 17:48:50;;;;;;;1999.90;999.90;;;0.30;99.90;;;;;;5054500;28;20039;-76
2022/12/17 17:51:19;;;;;;;1999.90;999.90;;;0.20;99.90;;;;;;5036309;28;20032;-77
2022/12/17 17:53:47;;;;;;;1999.90;999.90;;;0.20;99.90;;;;;;5052786;28;20484;-77
2022/12/17 17:56:24;;;;;;;1999.90;999.90;;;0.20;99.90;;;;;;5053822;28;20025;-76
2022/12/17 17:58:55;;;;;;;1999.90;999.90;;;0.10;99.90;;;;;;5054190;28;20032;-76
2022/12/17 18:01:31;;;;;;;1999.90;999.90;;;0.10;99.90;;;;;;5053921;28;20032;-77
2022/12/17 18:03:58;;;;;;;1999.90;999.90;;;0.00;99.90;;;;;;5053621;28;20127;-76
2022/12/17 18:06:25;;;;;;;1999.90;999.90;;;0.00;99.90;;;;;;5053653;28;20087;-76
2022/12/17 18:08:51;;;;;;;1999.90;999.90;;;0.00;99.90;;;;;;5053850;28;20188;-77
2022/12/17 18:11:19;;;;;;;1999.90;999.90;;;0.00;99.90;;;;;;5051913;28;20401;-76
2022/12/17 18:13:55;;;;;;;1999.90;999.90;;;0.00;99.90;;;;;;5049925;28;20045;-76
2022/12/17 18:16:27;;;;;;;1999.90;999.90;;;-0.10;99.90;;;;;;5053030;28;20439;-76
2022/12/17 18:18:54;;;;;;;1999.90;999.90;;;-0.10;99.90;;;;;;5051789;28;20388;-77
2022/12/17 18:21:21;;;;;;;1999.90;999.90;;;-0.10;99.90;;;;;;5052859;28;20032;-76
2022/12/17 18:23:46;;;;;;;1999.90;999.90;;;-0.20;99.90;;;;;;5052384;28;20032;-77
2022/12/17 18:26:18;;;;;;;1999.90;999.90;;;-0.20;99.90;;;;;;5051421;28;20144;-76
2022/12/17 18:28:44;;;;;;;1999.90;999.90;;;-0.30;99.90;;;;;;5052309;28;20032;-76
2022/12/17 18:31:15;;;;;;;1999.90;999.90;;;-0.30;99.90;;;;;;5052364;28;20013;-76
2022/12/17 18:33:45;;;;;;;1999.90;999.90;;;-0.30;99.90;;;;;;5052275;28;20025;-76
2022/12/17 18:36:14;;;;;;;1999.90;999.90;;;-0.40;99.90;;;;;;5052424;28;20044;-76
2022/12/17 18:38:41;;;;;;;1999.90;999.90;;;-0.40;99.90;;;;;;5052050;28;20102;-77
2022/12/17 18:43:58;;;;;;;1999.90;999.90;;;-0.40;99.90;;;;;;5052727;28;20039;-76
2022/12/17 18:46:25;;;;;;;1999.90;999.90;;;-0.40;99.90;;;;;;5052296;28;20033;-76
2022/12/17 18:48:52;;;;;;;1999.90;999.90;;;-0.40;99.90;;;;;;5053416;28;20025;-76
2022/12/17 18:51:19;;;;;;;1999.90;999.90;;;-0.40;99.90;;;;;;5053156;28;20027;-76
2022/12/17 18:53:45;;;;;;;1999.90;999.90;;;-0.40;99.90;;;;;;5052884;28;20033;-77
2022/12/17 18:56:11;;;;;;;1999.90;999.90;;;-0.40;99.90;;;;;;5052775;28;20369;-76
2022/12/17 18:58:37;;;;;;;1999.90;999.90;;;-0.40;99.90;;;;;;5053110;28;20399;-76
2022/12/17 19:01:04;;;;;;;1999.90;999.90;;;-0.30;99.90;;;;;;5052714;28;20095;-76
2022/12/17 19:03:30;;;;;;;1999.90;999.90;;;-0.40;99.90;;;;;;5052777;28;20053;-76
2022/12/17 19:05:56;;;;;;;1999.90;999.90;;;-0.50;99.90;;;;;;5052822;28;20037;-76
2022/12/17 19:08:22;;;;;;;1999.90;999.90;;;-0.50;99.90;;;;;;5052629;28;20041;-75
2022/12/17 19:10:47;;;;;;;1999.90;999.90;;;-0.50;99.90;;;;;;5052955;28;20025;-76
2022/12/17 19:13:13;;;;;;;1999.90;999.90;;;-0.50;99.90;;;;;;5052687;28;20056;-76
2022/12/17 19:15:38;;;;;;;1999.90;999.90;;;-0.50;99.90;;;;;;5048872;28;20033;-76
2022/12/17 19:18:04;;;;;;;1999.90;999.90;;;-0.50;99.90;;;;;;5052693;28;20112;-76
2022/12/17 19:20:29;;;;;;;1999.90;999.90;;;-0.50;99.90;;;;;;5052389;28;20021;-77
2022/12/17 19:22:55;;;;;;;1999.90;999.90;;;-0.50;99.90;;;;;;5052292;28;20049;-76
2022/12/17 19:25:21;;;;;;;1999.90;999.90;;;-0.60;99.90;;;;;;5052401;28;20484;-76
2022/12/17 19:27:47;;;;;;;1999.90;999.90;;;-0.50;99.90;;;;;;5052210;28;20442;-76
2022/12/17 19:30:13;;;;;;;1999.90;999.90;;;-0.60;99.90;;;;;;5052378;28;20025;-76
2022/12/17 19:32:38;;;;;;;1999.90;999.90;;;-0.50;99.90;;;;;;5052482;28;20021;-76
2022/12/17 19:35:04;;;;;;;1999.90;999.90;;;-0.50;99.90;;;;;;5052605;28;20373;-76
2022/12/17 19:37:30;;;;;;;1999.90;999.90;;;-0.50;99.90;;;;;;5051638;28;20117;-76
2022/12/17 19:39:55;;;;;;;1999.90;999.90;;;-0.50;99.90;;;;;;5052153;28;20029;-76
2022/12/17 19:42:24;;;;;;;1999.90;999.90;;;-0.50;99.90;;;;;;5051616;28;20033;-76
2022/12/17 19:44:53;;;;;;;1999.90;999.90;;;-0.60;99.90;;;;;;5051570;28;20048;-77
2022/12/17 19:47:21;;;;;;;1999.90;999.90;;;-0.60;99.90;;;;;;5051082;28;20032;-76
2022/12/17 19:49:47;;;;;;;1999.90;999.90;;;-0.70;99.90;;;;;;5052133;28;20087;-76
2022/12/17 19:52:12;;;;;;;1999.90;999.90;;;-0.70;99.90;;;;;;5052415;28;20025;-76
2022/12/17 19:54:38;;;;;;;1999.90;999.90;;;-0.70;99.90;;;;;;5052145;28;20034;-76
2022/12/17 19:57:03;;;;;;;1999.90;999.90;;;-0.70;99.90;;;;;;5052078;28;20032;-76
2022/12/17 19:59:29;;;;;;;1999.90;999.90;;;-0.70;99.90;;;;;;5050770;28;20060;-76
2022/12/17 20:01:56;;;;;;;1999.90;999.90;;;-0.60;99.90;;;;;;5051977;28;20039;-76
2022/12/17 20:04:21;;;;;;;1999.90;999.90;;;-0.60;99.90;;;;;;5050621;28;20499;-77
2022/12/17 20:06:47;;;;;;;1999.90;999.90;;;-0.70;99.90;;;;;;5052155;28;20112;-76
2022/12/17 20:09:14;;;;;;;1999.90;999.90;;;-0.70;99.90;;;;;;5052484;28;20078;-76
2022/12/17 20:11:40;;;;;;;1999.90;999.90;;;-0.70;99.90;;;;;;5051563;28;20032;-76
2022/12/17 20:14:05;;;;;;;1999.90;999.90;;;-0.70;99.90;;;;;;5049914;28;20021;-76
2022/12/17 20:16:37;;;;;;;1999.90;999.90;;;-0.70;99.90;;;;;;5052145;28;20096;-76
2022/12/17 20:19:05;;;;;;;1999.90;999.90;;;-0.70;99.90;;;;;;5052260;28;20096;-76
2022/12/17 20:21:31;;;;;;;1999.90;999.90;;;-0.70;99.90;;;;;;5051916;28;20503;-76
2022/12/17 20:23:57;;;;;;;1999.90;999.90;;;-0.70;99.90;;;;;;5051505;28;20017;-76
2022/12/17 20:26:24;;;;;;;1999.90;999.90;;;-0.70;99.90;;;;;;5051385;28;20037;-76
2022/12/17 20:28:50;;;;;;;1999.90;999.90;;;-0.70;99.90;;;;;;5052166;28;20152;-76
2022/12/17 20:31:16;;;;;;;1999.90;999.90;;;-0.70;99.90;;;;;;5052017;28;20104;-76
2022/12/17 20:33:42;;;;;;;1999.90;999.90;;;-0.70;99.90;;;;;;5050884;28;20514;-76
2022/12/17 20:36:13;;;;;;;1999.90;999.90;;;-0.80;99.90;;;;;;5051781;28;20056;-76
2022/12/17 20:38:40;;;;;;;1999.90;999.90;;;-0.80;99.90;;;;;;5051827;28;20061;-76
2022/12/17 20:41:12;;;;;;;1999.90;999.90;;;-0.80;99.90;;;;;;5050094;28;20041;-76
2022/12/17 20:43:38;;;;;;;1999.90;999.90;;;-0.80;99.90;;;;;;5051758;28;20500;-76
2022/12/17 20:46:05;;;;;;;1999.90;999.90;;;-0.90;99.90;;;;;;5050848;28;20028;-76
2022/12/17 20:48:31;;;;;;;1999.90;999.90;;;-0.90;99.90;;;;;;5052430;28;20025;-76
2022/12/17 20:50:57;;;;;;;1999.90;999.90;;;-0.90;99.90;;;;;;5055483;28;20048;-76
2022/12/17 20:53:22;;;;;;;1999.90;999.90;;;-0.90;99.90;;;;;;5055476;28;20474;-76
2022/12/17 20:56:01;;;;;;;1999.90;999.90;;;-0.90;99.90;;;;;;5054992;28;20060;-76
2022/12/17 20:58:27;;;;;;;1999.90;999.90;;;-1.00;99.90;;;;;;5055360;28;20013;-76
2022/12/17 21:01:02;;;;;;;1999.90;999.90;;;-1.00;99.90;;;;;;5054367;28;20071;-74
2022/12/17 21:03:28;;;;;;;1999.90;999.90;;;-1.00;99.90;;;;;;5055081;28;20052;-76
2022/12/17 21:05:54;;;;;;;1999.90;999.90;;;-1.00;99.90;;;;;;5055115;28;20037;-76
2022/12/17 21:08:19;;;;;;;1999.90;999.90;;;-1.00;99.90;;;;;;5054966;28;20370;-76
2022/12/17 21:10:45;;;;;;;1999.90;999.90;;;-1.10;99.90;;;;;;5053334;28;20087;-76
2022/12/17 21:13:28;;;;;;;1999.90;999.90;;;-1.00;99.90;;;;;;5053911;28;20025;-76
2022/12/17 21:15:59;;;;;;;1999.90;999.90;;;-1.10;99.90;;;;;;5053159;28;20029;-76
2022/12/17 21:18:26;;;;;;;1999.90;999.90;;;-1.00;99.90;;;;;;5054946;28;20097;-76
2022/12/17 21:21:02;;;;;;;1999.90;999.90;;;-1.10;99.90;;;;;;5053845;28;20368;-76
2022/12/17 21:23:28;;;;;;;1999.90;999.90;;;-1.10;99.90;;;;;;5054592;28;20032;-76
2022/12/17 21:26:03;;;;;;;1999.90;999.90;;;-1.10;99.90;;;;;;5054187;28;20504;-74
2022/12/17 21:28:29;;;;;;;1999.90;999.90;;;-1.10;99.90;;;;;;5054642;28;20021;-76
2022/12/17 21:30:55;;;;;;;1999.90;999.90;;;-1.10;99.90;;;;;;5054722;28;20081;-76
2022/12/17 21:33:21;;;;;;;1999.90;999.90;;;-1.10;99.90;;;;;;5054906;28;20084;-76
2022/12/17 21:35:47;;;;;;;1999.90;999.90;;;-1.10;99.90;;;;;;5054473;28;20032;-76
2022/12/17 21:38:13;;;;;;;1999.90;999.90;;;-1.10;99.90;;;;;;5054392;28;20155;-76
2022/12/17 21:40:38;;;;;;;1999.90;999.90;;;-1.10;99.90;;;;;;5054187;28;20480;-76
2022/12/17 21:43:04;;;;;;;1999.90;999.90;;;-1.10;99.90;;;;;;5054425;28;20091;-76
2022/12/17 21:45:39;;;;;;;1999.90;999.90;;;-1.10;99.90;;;;;;5054470;28;20033;-76
2022/12/17 21:48:06;;;;;;;1999.90;999.90;;;-1.10;99.90;;;;;;5052276;28;20025;-76
2022/12/17 21:50:32;;;;;;;1999.90;999.90;;;-1.10;99.90;;;;;;5054484;28;20114;-76
2022/12/17 21:52:58;;;;;;;1999.90;999.90;;;-1.10;99.90;;;;;;5054393;28;20423;-76
2022/12/17 21:55:24;;;;;;;1999.90;999.90;;;-1.10;99.90;;;;;;5054168;28;20061;-76
2022/12/17 21:57:50;;;;;;;1999.90;999.90;;;-1.00;99.90;;;;;;5053992;28;20380;-76
2022/12/17 22:00:16;;;;;;;1999.90;999.90;;;-0.90;99.90;;;;;;5053058;28;20036;-76
2022/12/17 22:02:41;;;;;;;1999.90;999.90;;;-0.70;99.90;;;;;;5054144;28;20033;-76
2022/12/17 22:05:07;;;;;;;1999.90;999.90;;;-0.60;99.90;;;;;;5053651;28;20064;-76
2022/12/17 22:07:33;;;;;;;1999.90;999.90;;;-0.60;99.90;;;;;;5053857;28;20108;-76
2022/12/17 22:09:58;;;;;;;1999.90;999.90;;;-0.50;99.90;;;;;;5053994;28;20029;-76
2022/12/17 22:15:09;;;;;;;1999.90;999.90;;;-0.60;99.90;;;;;;5053916;28;20020;-76
2022/12/17 22:17:36;;;;;;;1999.90;999.90;;;-0.70;99.90;;;;;;5052991;28;20028;-76
2022/12/17 22:20:03;;;;;;;1999.90;999.90;;;-0.70;99.90;;;;;;5053192;28;20044;-76
2022/12/17 22:22:29;;;;;;;1999.90;999.90;;;-0.70;99.90;;;;;;5052407;28;20107;-76
2022/12/17 22:24:57;;;;;;;1999.90;999.90;;;-0.70;99.90;;;;;;5053578;28;20120;-76
2022/12/17 22:27:23;;;;;;;1999.90;999.90;;;-0.70;99.90;;;;;;5053400;28;20025;-76
2022/12/17 22:35:17;;;;;;;1999.90;999.90;;;-0.60;99.90;;;;;;5053629;28;20086;-76
2022/12/17 22:37:43;;;;;;;1999.90;999.90;;;-0.40;99.90;;;;;;5053315;28;20037;-76
2022/12/17 22:40:09;;;;;;;1999.90;999.90;;;-0.30;99.90;;;;;;5053374;28;20503;-76
2022/12/17 22:45:19;;;;;;;1999.90;999.90;;;-0.10;99.90;;;;;;5053408;28;20101;-76
2022/12/17 22:47:44;;;;;;;1999.90;999.90;;;-0.10;99.90;;;;;;5052244;28;20104;-76
2022/12/17 22:50:10;;;;;;;1999.90;999.90;;;0.00;99.90;;;;;;5053048;28;20479;-76
2022/12/17 22:52:36;;;;;;;1999.90;999.90;;;0.00;99.90;;;;;;5053015;28;20013;-76
2022/12/17 22:55:02;;;;;;;1999.90;999.90;;;0.10;99.90;;;;;;5053200;28;20473;-76
2022/12/17 22:57:28;;;;;;;1999.90;999.90;;;0.10;99.90;;;;;;5052999;28;20021;-75
2022/12/17 22:59:53;;;;;;;1999.90;999.90;;;0.20;99.90;;;;;;5053054;28;20490;-76
2022/12/17 23:02:19;;;;;;;1999.90;999.90;;;0.30;99.90;;;;;;5052850;28;20027;-73
2022/12/17 23:04:44;;;;;;;1999.90;999.90;;;0.30;99.90;;;;;;5052948;28;20096;-76
2022/12/17 23:07:10;;;;;;;1999.90;999.90;;;0.40;99.90;;;;;;5052805;28;20025;-76
2022/12/17 23:09:36;;;;;;;1999.90;999.90;;;0.40;99.90;;;;;;5052859;28;20108;-76
2022/12/17 23:12:49;;;;;;;1999.90;999.90;;;0.50;99.90;;;;;;5051336;28;20033;-76
2022/12/17 23:14:47;;;;;;;1999.90;999.90;;;0.50;99.90;;;;;;5051613;28;20057;-76
2022/12/17 23:17:12;;;;;;;1999.90;999.90;;;0.60;99.90;;;;;;5052592;28;20025;-76
2022/12/17 23:19:38;;;;;;;1999.90;999.90;;;0.60;99.90;;;;;;5051939;28;20506;-76
2022/12/17 23:22:04;;;;;;;1999.90;999.90;;;0.70;99.90;;;;;;5052347;28;20025;-77
2022/12/17 23:24:30;;;;;;;1999.90;999.90;;;0.70;99.90;;;;;;5051940;28;20025;-76
2022/12/17 23:26:55;;;;;;;1999.90;999.90;;;0.80;99.90;;;;;;5052100;28;20476;-76
2022/12/17 23:29:21;;;;;;;1999.90;999.90;;;0.80;99.90;;;;;;5052451;28;20046;-76
2022/12/17 23:31:46;;;;;;;1999.90;999.90;;;0.90;99.90;;;;;;5052311;28;20438;-76
2022/12/17 23:34:12;;;;;;;1999.90;999.90;;;0.90;99.90;;;;;;5052015;28;20029;-76
2022/12/17 23:36:38;;;;;;;1999.90;999.90;;;1.00;99.90;;;;;;5052344;28;20396;-76
2022/12/17 23:39:04;;;;;;;1999.90;999.90;;;1.00;99.90;;;;;;5052565;28;20024;-76
2022/12/17 23:41:30;;;;;;;1999.90;999.90;;;1.10;99.90;;;;;;5051765;28;20025;-76
2022/12/17 23:43:57;;;;;;;1999.90;999.90;;;1.20;99.90;;;;;;5052185;28;20021;-76
2022/12/17 23:46:25;;;;;;;1999.90;999.90;;;1.20;99.90;;;;;;5052324;28;20025;-76
2022/12/17 23:48:51;;;;;;;1999.90;999.90;;;1.20;99.90;;;;;;5051764;28;20033;-76
2022/12/17 23:51:19;;;;;;;1999.90;999.90;;;1.20;99.90;;;;;;5052490;28;20385;-76
2022/12/17 23:53:45;;;;;;;1999.90;999.90;;;1.30;99.90;;;;;;5052348;28;20025;-76
2022/12/17 23:56:16;;;;;;;1999.90;999.90;;;1.30;99.90;;;;;;5051785;28;20031;-76
2022/12/17 23:58:43;;;;;;;1999.90;999.90;;;1.40;99.90;;;;;;5052428;28;20032;-76
